createdAt,value
2023-03-06T00:02:07.933Z,94798.81
2023-03-06T00:04:36.496Z,94795.22
2023-03-06T00:07:04.386Z,94796.03
2023-03-06T00:09:32.357Z,94801.09
2023-03-06T00:11:59.987Z,94790.03
2023-03-06T00:14:28.480Z,94786.16
2023-03-06T00:16:57.616Z,94786.16
2023-03-06T00:19:25.549Z,94774.72
2023-03-06T00:22:15.099Z,94771.97
2023-03-06T00:24:43.354Z,94770.81
2023-03-06T00:27:11.301Z,94777.16
2023-03-06T00:29:38.923Z,94767.25
2023-03-06T00:32:09.379Z,94769.19
2023-03-06T00:34:37.012Z,94766.91
2023-03-06T00:37:05.324Z,94764.59
2023-03-06T00:39:33.857Z,94759.38
2023-03-06T00:42:02.284Z,94760.03
2023-03-06T00:44:29.874Z,94758.19
2023-03-06T00:46:57.666Z,94759.00
2023-03-06T00:49:26.607Z,94756.88
2023-03-06T00:51:55.244Z,94744.94
2023-03-06T00:54:22.887Z,94744.94
2023-03-06T00:56:51.149Z,94736.84
2023-03-06T00:59:18.872Z,94732.44
2023-03-06T01:01:46.746Z,94723.84
2023-03-06T01:04:14.793Z,94730.63
2023-03-06T01:06:44.553Z,94724.94
2023-03-06T01:09:12.198Z,94727.09
2023-03-06T01:11:39.881Z,94711.78
2023-03-06T01:14:07.599Z,94706.88
2023-03-06T01:16:35.430Z,94701.38
2023-03-06T01:19:03.098Z,94699.44
2023-03-06T01:21:31.151Z,94685.09
2023-03-06T01:24:00.958Z,94682.31
2023-03-06T01:26:29.138Z,94677.97
2023-03-06T01:28:57.388Z,94680.41
2023-03-06T01:31:26.178Z,94669.84
2023-03-06T01:33:53.766Z,94666.25
2023-03-06T01:36:22.077Z,94664.63
2023-03-06T01:38:49.703Z,94656.16
2023-03-06T01:41:21.166Z,94658.81
2023-03-06T01:43:48.819Z,94661.69
2023-03-06T01:46:39.045Z,94656.78
2023-03-06T01:49:12.295Z,94650.88
2023-03-06T01:51:45.080Z,94642.75
2023-03-06T01:54:15.627Z,94647.94
2023-03-06T01:56:47.878Z,94641.75
2023-03-06T01:59:15.987Z,94637.16
2023-03-06T02:01:45.403Z,94627.56
2023-03-06T02:04:15.507Z,94631.63
2023-03-06T02:06:44.507Z,94625.13
2023-03-06T02:09:13.898Z,94632.25
2023-03-06T02:11:44.440Z,94625.28
2023-03-06T02:14:16.101Z,94623.78
2023-03-06T02:16:45.824Z,94627.06
2023-03-06T02:19:27.517Z,94620.19
2023-03-06T02:21:55.517Z,94615.28
2023-03-06T02:24:33.098Z,94607.19
2023-03-06T02:27:05.155Z,94611.72
2023-03-06T02:29:32.963Z,94607.19
2023-03-06T02:32:03.986Z,94598.78
2023-03-06T02:34:52.648Z,94599.78
2023-03-06T02:37:22.157Z,94595.41
2023-03-06T02:39:57.486Z,94586.44
2023-03-06T02:42:29.719Z,94590.81
2023-03-06T02:45:00.608Z,94600.41
2023-03-06T02:47:28.592Z,94592.78
2023-03-06T02:49:56.176Z,94588.69
2023-03-06T02:52:24.179Z,94586.25
2023-03-06T02:54:51.768Z,94591.28
2023-03-06T02:57:20.424Z,94585.75
2023-03-06T02:59:49.421Z,94571.75
2023-03-06T03:02:17.296Z,94578.59
2023-03-06T03:04:46.411Z,94577.28
2023-03-06T03:07:14.369Z,94572.69
2023-03-06T03:09:43.318Z,94565.44
2023-03-06T03:12:11.839Z,94568.84
2023-03-06T03:14:40.221Z,94563.16
2023-03-06T03:17:09.175Z,94561.38
2023-03-06T03:19:37.517Z,94564.44
2023-03-06T03:22:07.703Z,94568.03
2023-03-06T03:24:35.898Z,94559.09
2023-03-06T03:27:04.159Z,94570.16
2023-03-06T03:29:32.667Z,94553.91
2023-03-06T03:32:00.758Z,94564.00
2023-03-06T03:34:30.501Z,94562.38
2023-03-06T03:36:58.515Z,94564.00
2023-03-06T03:39:26.225Z,94563.03
2023-03-06T03:41:53.925Z,94548.41
2023-03-06T03:44:22.197Z,94546.16
2023-03-06T03:46:50.063Z,94540.63
2023-03-06T03:49:22.209Z,94540.94
2023-03-06T03:51:52.689Z,94540.78
2023-03-06T03:54:21.755Z,94532.16
2023-03-06T03:56:51.063Z,94530.88
2023-03-06T03:59:25.555Z,94536.91
2023-03-06T04:02:05.402Z,94535.13
2023-03-06T04:04:39.804Z,94529.91
2023-03-06T04:07:10.240Z,94532.22
2023-03-06T04:09:40.651Z,94542.63
2023-03-06T04:12:09.743Z,94540.03
2023-03-06T04:14:38.712Z,94537.41
2023-03-06T04:17:06.897Z,94530.25
2023-03-06T04:19:35.640Z,94530.25
2023-03-06T04:22:03.277Z,94522.44
2023-03-06T04:24:35.409Z,94527.97
2023-03-06T04:27:03.536Z,94526.47
2023-03-06T04:29:31.863Z,94521.94
2023-03-06T04:31:59.583Z,94519.47
2023-03-06T04:34:28.212Z,94515.94
2023-03-06T04:36:56.375Z,94517.56
2023-03-06T04:39:24.840Z,94517.84
2023-03-06T04:41:53.781Z,94514.94
2023-03-06T04:44:21.928Z,94510.72
2023-03-06T04:46:49.538Z,94512.81
2023-03-06T04:49:17.143Z,94506.63
2023-03-06T04:51:44.728Z,94508.59
2023-03-06T04:54:12.585Z,94500.94
2023-03-06T04:56:40.358Z,94507.09
2023-03-06T04:59:10.044Z,94496.38
2023-03-06T05:01:37.739Z,94499.78
2023-03-06T05:04:05.958Z,94497.03
2023-03-06T05:06:33.701Z,94497.69
2023-03-06T05:09:01.306Z,94491.69
2023-03-06T05:11:29.245Z,94492.50
2023-03-06T05:13:56.829Z,94492.16
2023-03-06T05:16:25.899Z,94493.59
2023-03-06T05:18:53.530Z,94487.78
2023-03-06T05:21:21.468Z,94485.81
2023-03-06T05:23:49.376Z,94484.38
2023-03-06T05:26:17.204Z,94493.16
2023-03-06T05:28:45.124Z,94481.13
2023-03-06T05:31:13.205Z,94474.78
2023-03-06T05:33:42.227Z,94480.31
2023-03-06T05:36:11.061Z,94475.78
2023-03-06T05:38:38.851Z,94474.47
2023-03-06T05:41:06.867Z,94475.63
2023-03-06T05:43:34.443Z,94476.59
2023-03-06T05:46:03.393Z,94474.31
2023-03-06T05:48:31.293Z,94470.44
2023-03-06T05:51:01.828Z,94475.47
2023-03-06T05:53:29.929Z,94477.91
2023-03-06T05:55:59.091Z,94477.56
2023-03-06T05:58:26.841Z,94479.19
2023-03-06T06:00:54.904Z,94490.75
2023-03-06T06:03:23.111Z,94485.09
2023-03-06T06:05:52.004Z,94484.75
2023-03-06T06:08:21.593Z,94489.63
2023-03-06T06:10:52.194Z,94478.41
2023-03-06T06:13:20.808Z,94481.81
2023-03-06T06:15:49.341Z,94482.16
2023-03-06T06:18:17.201Z,94490.59
2023-03-06T06:20:45.578Z,94487.00
2023-03-06T06:23:13.207Z,94486.19
2023-03-06T06:25:43.030Z,94495.16
2023-03-06T06:28:12.312Z,94490.28
2023-03-06T06:30:40.325Z,94493.69
2023-03-06T06:33:08.254Z,94488.50
2023-03-06T06:35:37.834Z,94493.19
2023-03-06T06:38:05.778Z,94494.19
2023-03-06T06:40:33.426Z,94488.97
2023-03-06T06:43:02.426Z,94493.03
2023-03-06T06:45:30.074Z,94489.44
2023-03-06T06:47:58.332Z,94490.59
2023-03-06T06:50:26.370Z,94493.69
2023-03-06T06:52:53.962Z,94487.84
2023-03-06T06:55:21.631Z,94494.84
2023-03-06T06:57:49.220Z,94494.84
2023-03-06T07:00:19.850Z,94491.41
2023-03-06T07:02:49.277Z,94485.72
2023-03-06T07:05:17.253Z,94482.47
2023-03-06T07:07:46.659Z,94491.25
2023-03-06T07:10:17.190Z,94491.88
2023-03-06T07:12:46.122Z,94497.78
2023-03-06T07:15:16.105Z,94497.75
2023-03-06T07:17:45.830Z,94498.41
2023-03-06T07:20:14.292Z,94502.94
2023-03-06T07:22:50.733Z,94506.22
2023-03-06T07:25:19.795Z,94500.69
2023-03-06T07:27:53.286Z,94507.22
2023-03-06T07:30:22.774Z,94509.63
2023-03-06T07:32:55.607Z,94499.97
2023-03-06T07:35:24.269Z,94501.94
2023-03-06T07:37:52.191Z,94504.88
2023-03-06T07:40:21.713Z,94507.16
2023-03-06T07:42:49.998Z,94509.09
2023-03-06T07:45:25.456Z,94515.47
2023-03-06T07:47:55.725Z,94513.31
2023-03-06T07:50:23.649Z,94511.69
2023-03-06T07:52:51.607Z,94513.34
2023-03-06T07:55:19.364Z,94505.97
2023-03-06T07:57:47.317Z,94503.53
2023-03-06T08:00:16.928Z,94508.69
2023-03-06T08:02:44.966Z,94516.81
2023-03-06T08:05:17.722Z,94512.69
2023-03-06T08:07:46.370Z,94520.00
2023-03-06T08:10:15.944Z,94517.34
2023-03-06T08:12:44.376Z,94526.84
2023-03-06T08:15:13.722Z,94530.47
2023-03-06T08:17:41.867Z,94519.34
2023-03-06T08:20:11.277Z,94529.41
2023-03-06T08:22:40.206Z,94528.78
2023-03-06T08:25:09.304Z,94532.28
2023-03-06T08:27:37.442Z,94530.09
2023-03-06T08:30:06.129Z,94536.22
2023-03-06T08:32:36.210Z,94540.13
2023-03-06T08:35:04.760Z,94540.31
2023-03-06T08:37:32.363Z,94540.34
2023-03-06T08:40:02.958Z,94543.59
2023-03-06T08:42:30.737Z,94548.19
2023-03-06T08:44:58.753Z,94555.63
2023-03-06T08:47:26.369Z,94546.47
2023-03-06T08:49:54.294Z,94546.94
2023-03-06T08:52:21.880Z,94553.66
2023-03-06T08:54:49.528Z,94556.44
2023-03-06T08:57:18.466Z,94558.75
2023-03-06T08:59:46.440Z,94562.78
2023-03-06T09:02:15.222Z,94565.00
2023-03-06T09:04:43.597Z,94562.13
2023-03-06T09:07:11.184Z,94566.72
2023-03-06T09:09:39.443Z,94560.47
2023-03-06T09:12:07.448Z,94563.47
2023-03-06T09:14:36.564Z,94562.50
2023-03-06T09:17:04.201Z,94554.94
2023-03-06T09:19:32.560Z,94551.91
2023-03-06T09:22:00.996Z,94556.88
2023-03-06T09:24:29.358Z,94551.63
2023-03-06T09:26:57.488Z,94557.53
2023-03-06T09:29:25.415Z,94556.13
2023-03-06T09:31:54.455Z,94571.03
2023-03-06T09:34:22.085Z,94554.59
2023-03-06T09:36:56.673Z,94554.94
2023-03-06T09:39:26.288Z,94550.28
2023-03-06T09:41:54.877Z,94565.34
2023-03-06T09:44:26.053Z,94557.88
2023-03-06T09:47:27.419Z,94564.56
2023-03-06T09:50:08.920Z,94565.63
2023-03-06T09:52:46.904Z,94560.25
2023-03-06T09:55:19.419Z,94546.09
2023-03-06T09:57:55.564Z,94554.38
2023-03-06T10:00:27.888Z,94559.03
2023-03-06T10:03:08.784Z,94552.81
2023-03-06T10:05:42.572Z,94552.56
2023-03-06T10:08:22.581Z,94547.38
2023-03-06T10:10:54.892Z,94556.06
2023-03-06T10:13:29.055Z,94549.47
2023-03-06T10:16:05.924Z,94555.75
2023-03-06T10:18:38.353Z,94550.78
2023-03-06T10:21:19.692Z,94551.22
2023-03-06T10:23:53.537Z,94550.13
2023-03-06T10:26:25.644Z,94549.41
2023-03-06T10:29:03.275Z,94548.03
2023-03-06T10:31:31.246Z,94544.00
2023-03-06T10:34:16.304Z,94559.75
2023-03-06T10:36:44.777Z,94549.69
2023-03-06T10:39:17.069Z,94545.28
2023-03-06T10:41:46.275Z,94542.41
2023-03-06T10:44:23.400Z,94553.28
2023-03-06T10:46:54.044Z,94547.13
2023-03-06T10:49:32.656Z,94545.50
2023-03-06T10:52:05.364Z,94534.59
2023-03-06T10:54:35.169Z,94541.59
2023-03-06T10:57:21.074Z,94533.00
2023-03-06T10:59:54.530Z,94541.31
2023-03-06T11:02:27.648Z,94542.69
2023-03-06T11:04:59.146Z,94551.19
2023-03-06T11:07:28.429Z,94549.06
2023-03-06T11:10:18.961Z,94542.91
2023-03-06T11:12:58.549Z,94547.63
2023-03-06T11:15:27.116Z,94542.41
2023-03-06T11:17:58.816Z,94544.44
2023-03-06T11:20:44.880Z,94534.16
2023-03-06T11:23:20.432Z,94545.28
2023-03-06T11:25:51.312Z,94540.22
2023-03-06T11:28:23.735Z,94552.03
2023-03-06T11:30:55.504Z,94539.94
2023-03-06T11:33:29.854Z,94530.13
2023-03-06T11:36:03.497Z,94538.78
2023-03-06T11:38:39.835Z,94533.34
2023-03-06T11:41:19.388Z,94523.78
2023-03-06T11:43:55.775Z,94530.22
2023-03-06T11:46:28.725Z,94534.50
2023-03-06T11:49:02.347Z,94529.63
2023-03-06T11:51:36.279Z,94523.88
2023-03-06T11:54:04.031Z,94528.59
2023-03-06T11:56:36.597Z,94515.66
2023-03-06T11:59:26.709Z,94516.19
2023-03-06T12:02:02.791Z,94515.94
2023-03-06T12:04:46.748Z,94514.56
2023-03-06T12:07:23.589Z,94505.38
2023-03-06T12:09:57.752Z,94511.94
2023-03-06T12:12:56.028Z,94503.56
2023-03-06T12:15:36.562Z,94501.53
2023-03-06T12:18:20.718Z,94493.03
2023-03-06T12:20:56.329Z,94499.50
2023-03-06T12:23:41.746Z,94494.28
2023-03-06T12:26:26.820Z,94497.91
2023-03-06T12:29:13.275Z,94485.81
2023-03-06T12:31:50.285Z,94483.59
2023-03-06T12:34:38.890Z,94479.88
2023-03-06T12:37:18.248Z,94478.34
2023-03-06T12:40:09.885Z,94485.28
2023-03-06T12:43:02.221Z,94478.06
2023-03-06T12:45:33.236Z,94480.44
2023-03-06T12:48:02.827Z,94484.75
2023-03-06T12:50:32.163Z,94467.84
2023-03-06T12:53:03.294Z,94475.47
2023-03-06T12:55:40.512Z,94480.13
2023-03-06T12:58:36.623Z,94474.16
2023-03-06T13:01:10.064Z,94481.53
2023-03-06T13:03:55.448Z,94476.44
2023-03-06T13:06:39.234Z,94475.00
2023-03-06T13:09:19.612Z,94469.84
2023-03-06T13:12:17.636Z,94477.47
2023-03-06T13:14:55.215Z,94473.91
2023-03-06T13:17:29.679Z,94470.09
2023-03-06T13:20:43.325Z,94468.78
2023-03-06T13:23:50.788Z,94472.97
2023-03-06T13:26:50.703Z,94465.16
2023-03-06T13:29:59.968Z,94463.31
2023-03-06T13:32:35.498Z,94457.84
2023-03-06T13:35:03.916Z,94449.91
2023-03-06T13:37:51.545Z,94466.53
2023-03-06T13:40:31.718Z,94462.22
2023-03-06T13:43:30.473Z,94462.38
2023-03-06T13:46:19.277Z,94449.31
2023-03-06T13:49:05.620Z,94462.91
2023-03-06T13:51:36.302Z,94462.53
2023-03-06T13:54:22.610Z,94448.75
2023-03-06T13:57:24.113Z,94467.84
2023-03-06T14:00:10.306Z,94445.72
2023-03-06T14:03:21.131Z,94459.03
2023-03-06T14:05:51.527Z,94455.38
2023-03-06T14:08:21.963Z,94458.78
2023-03-06T14:11:01.554Z,94452.00
2023-03-06T14:13:46.623Z,94456.66
2023-03-06T14:16:20.286Z,94443.84
2023-03-06T14:18:50.378Z,94447.91
2023-03-06T14:21:30.712Z,94444.50
2023-03-06T14:24:00.906Z,94442.88
2023-03-06T14:26:33.553Z,94450.72
2023-03-06T14:29:03.550Z,94452.75
2023-03-06T14:31:33.356Z,94448.47
2023-03-06T14:34:03.651Z,94443.09
2023-03-06T14:36:36.807Z,94445.41
2023-03-06T14:39:11.864Z,94441.91
2023-03-06T14:41:39.875Z,94444.16
2023-03-06T14:44:17.989Z,94439.84
2023-03-06T14:46:46.754Z,94439.41
2023-03-06T14:49:15.784Z,94439.28
2023-03-06T14:51:46.951Z,94439.84
2023-03-06T14:54:19.790Z,94436.00
2023-03-06T14:56:49.945Z,94437.47
2023-03-06T14:59:21.594Z,94441.44
2023-03-06T15:01:51.838Z,94442.72
2023-03-06T15:04:27.250Z,94434.38
2023-03-06T15:06:58.083Z,94443.72
2023-03-06T15:09:29.010Z,94429.38
2023-03-06T15:11:59.429Z,94430.09
2023-03-06T15:14:34.040Z,94425.31
2023-03-06T15:17:23.770Z,94426.31
2023-03-06T15:19:54.196Z,94426.66
2023-03-06T15:22:28.544Z,94431.00
2023-03-06T15:25:15.506Z,94432.63
2023-03-06T15:27:50.072Z,94433.63
2023-03-06T15:30:31.434Z,94435.78
2023-03-06T15:33:25.224Z,94427.69
2023-03-06T15:35:55.248Z,94432.19
2023-03-06T15:38:33.818Z,94428.56
2023-03-06T15:41:05.297Z,94430.84
2023-03-06T15:43:36.139Z,94432.34
2023-03-06T15:46:07.426Z,94443.09
2023-03-06T15:48:35.308Z,94425.59
2023-03-06T15:51:03.815Z,94433.34
2023-03-06T15:53:32.816Z,94427.22
2023-03-06T15:56:00.626Z,94429.38
2023-03-06T15:58:31.022Z,94427.75
2023-03-06T16:00:59.080Z,94443.97
2023-03-06T16:03:26.674Z,94431.63
2023-03-06T16:05:54.671Z,94433.88
2023-03-06T16:08:22.322Z,94432.91
2023-03-06T16:10:52.487Z,94433.31
2023-03-06T16:13:25.713Z,94432.00
2023-03-06T16:15:54.314Z,94428.03
2023-03-06T16:18:22.457Z,94431.91
2023-03-06T16:20:51.162Z,94426.69
2023-03-06T16:23:18.762Z,94429.53
2023-03-06T16:25:49.978Z,94430.16
2023-03-06T16:28:18.928Z,94430.56
2023-03-06T16:30:46.780Z,94434.94
2023-03-06T16:33:14.604Z,94428.84
2023-03-06T16:35:44.562Z,94426.13
2023-03-06T16:38:12.213Z,94431.78
2023-03-06T16:40:41.354Z,94427.47
2023-03-06T16:43:10.422Z,94436.31
2023-03-06T16:45:41.594Z,94430.97
2023-03-06T16:48:15.733Z,94430.72
2023-03-06T16:50:43.876Z,94429.59
2023-03-06T16:53:11.510Z,94438.06
2023-03-06T16:55:39.320Z,94433.91
2023-03-06T16:58:08.561Z,94439.69
2023-03-06T17:00:36.337Z,94437.56
2023-03-06T17:03:05.500Z,94437.31
2023-03-06T17:05:34.998Z,94435.63
2023-03-06T17:08:03.065Z,94436.69
2023-03-06T17:10:30.638Z,94437.56
2023-03-06T17:12:58.687Z,94443.78
2023-03-06T17:15:26.284Z,94440.72
2023-03-06T17:17:54.679Z,94442.47
2023-03-06T17:20:23.832Z,94439.56
2023-03-06T17:22:51.826Z,94446.53
2023-03-06T17:25:19.654Z,94444.75
2023-03-06T17:27:47.750Z,94446.88
2023-03-06T17:30:15.979Z,94451.31
2023-03-06T17:32:43.940Z,94454.38
2023-03-06T17:35:11.557Z,94457.13
2023-03-06T17:37:40.556Z,94455.38
2023-03-06T17:40:10.487Z,94464.28
2023-03-06T17:42:38.094Z,94462.16
2023-03-06T17:45:09.117Z,94464.41
2023-03-06T17:47:37.134Z,94467.88
2023-03-06T17:50:05.541Z,94468.38
2023-03-06T17:52:33.425Z,94465.94
2023-03-06T17:55:02.388Z,94464.41
2023-03-06T17:57:30.513Z,94468.28
2023-03-06T17:59:58.305Z,94474.19
2023-03-06T18:02:26.291Z,94472.53
2023-03-06T18:04:56.737Z,94478.69
2023-03-06T18:07:24.770Z,94473.22
2023-03-06T18:09:52.350Z,94482.72
2023-03-06T18:12:21.613Z,94486.59
2023-03-06T18:14:50.638Z,94484.00
2023-03-06T18:17:18.410Z,94487.66
2023-03-06T18:19:46.456Z,94488.34
2023-03-06T18:22:14.085Z,94495.25
2023-03-06T18:24:41.718Z,94493.56
2023-03-06T18:27:09.694Z,94493.63
2023-03-06T18:29:38.681Z,94490.03
2023-03-06T18:32:07.104Z,94492.75
2023-03-06T18:34:35.098Z,94491.97
2023-03-06T18:37:03.037Z,94493.25
2023-03-06T18:39:30.660Z,94486.75
2023-03-06T18:41:58.236Z,94492.28
2023-03-06T18:44:25.954Z,94493.25
2023-03-06T18:46:54.893Z,94500.44
2023-03-06T18:49:23.057Z,94494.88
2023-03-06T18:51:50.886Z,94494.50
2023-03-06T18:54:18.987Z,94486.25
2023-03-06T18:56:46.589Z,94492.50
2023-03-06T18:59:18.638Z,94484.19
2023-03-06T19:01:48.118Z,94487.88
2023-03-06T19:04:17.604Z,94490.00
2023-03-06T19:06:45.199Z,94484.63
2023-03-06T19:09:12.997Z,94483.47
2023-03-06T19:11:40.689Z,94492.63
2023-03-06T19:14:08.615Z,94492.13
2023-03-06T19:16:36.610Z,94498.28
2023-03-06T19:19:04.574Z,94504.50
2023-03-06T19:21:33.718Z,94499.78
2023-03-06T19:24:03.110Z,94503.88
2023-03-06T19:26:30.730Z,94505.50
2023-03-06T19:28:58.697Z,94498.53
2023-03-06T19:31:28.412Z,94495.94
2023-03-06T19:33:57.639Z,94499.16
2023-03-06T19:36:27.587Z,94509.78
2023-03-06T19:38:58.282Z,94498.88
2023-03-06T19:41:26.433Z,94504.78
2023-03-06T19:43:55.860Z,94511.31
2023-03-06T19:46:24.486Z,94519.16
2023-03-06T19:48:55.993Z,94507.41
2023-03-06T19:51:23.926Z,94511.63
2023-03-06T19:53:51.577Z,94513.59
2023-03-06T19:56:23.045Z,94516.34
2023-03-06T19:58:50.695Z,94518.16
2023-03-06T20:01:20.442Z,94515.69
2023-03-06T20:03:50.500Z,94519.94
2023-03-06T20:06:20.635Z,94525.59
2023-03-06T20:08:49.013Z,94523.31
2023-03-06T20:11:18.073Z,94520.97
2023-03-06T20:13:47.758Z,94518.53
2023-03-06T20:16:15.626Z,94519.19
2023-03-06T20:18:43.440Z,94512.84
2023-03-06T20:21:11.760Z,94513.66
2023-03-06T20:23:39.388Z,94508.09
2023-03-06T20:26:09.963Z,94512.50
2023-03-06T20:28:39.237Z,94510.06
2023-03-06T20:31:09.790Z,94513.78
2023-03-06T20:33:37.842Z,94520.94
2023-03-06T20:36:12.138Z,94517.34
2023-03-06T20:38:40.046Z,94514.13
2023-03-06T20:41:08.841Z,94518.97
2023-03-06T20:43:36.511Z,94526.16
2023-03-06T20:46:05.956Z,94521.63
2023-03-06T20:48:35.088Z,94530.78
2023-03-06T20:51:04.897Z,94520.91
2023-03-06T20:53:32.797Z,94525.13
2023-03-06T20:56:00.681Z,94523.97
2023-03-06T20:58:30.099Z,94526.91
2023-03-06T21:01:00.312Z,94517.13
2023-03-06T21:03:29.206Z,94521.72
2023-03-06T21:05:58.350Z,94512.38
2023-03-06T21:08:25.938Z,94504.44
2023-03-06T21:10:53.878Z,94513.34
2023-03-06T21:13:21.758Z,94501.78
2023-03-06T21:15:49.973Z,94511.53
2023-03-06T21:18:17.712Z,94507.13
2023-03-06T21:20:45.598Z,94494.41
2023-03-06T21:23:14.945Z,94511.31
2023-03-06T21:25:48.784Z,94508.75
2023-03-06T21:28:16.497Z,94501.09
2023-03-06T21:30:44.494Z,94500.63
2023-03-06T21:33:12.837Z,94511.28
2023-03-06T21:35:41.583Z,94505.72
2023-03-06T21:38:09.230Z,94495.91
2023-03-06T21:40:38.505Z,94500.84
2023-03-06T21:43:06.328Z,94491.53
2023-03-06T21:45:34.036Z,94492.84
2023-03-06T21:48:01.806Z,94495.28
2023-03-06T21:50:29.741Z,94497.25
2023-03-06T21:52:57.786Z,94489.25
2023-03-06T21:55:25.392Z,94482.63
2023-03-06T21:57:56.300Z,94484.59
2023-03-06T22:00:25.691Z,94491.88
2023-03-06T22:02:53.970Z,94485.84
2023-03-06T22:05:21.598Z,94481.81
2023-03-06T22:07:49.420Z,94479.38
2023-03-06T22:10:17.146Z,94486.22
2023-03-06T22:12:46.085Z,94478.38
2023-03-06T22:15:15.017Z,94475.78
2023-03-06T22:17:42.770Z,94477.22
2023-03-06T22:20:13.034Z,94483.88
2023-03-06T22:22:41.136Z,94471.38
2023-03-06T22:25:10.183Z,94468.28
2023-03-06T22:27:38.634Z,94463.06
2023-03-06T22:30:08.182Z,94456.56
2023-03-06T22:32:37.665Z,94448.75
2023-03-06T22:35:06.076Z,94459.16
2023-03-06T22:37:33.684Z,94452.00
2023-03-06T22:40:01.574Z,94451.69
2023-03-06T22:42:29.825Z,94443.88
2023-03-06T22:44:57.409Z,94451.63
2023-03-06T22:47:25.192Z,94442.22
2023-03-06T22:49:54.104Z,94445.50
2023-03-06T22:52:21.719Z,94442.56
2023-03-06T22:54:49.312Z,94442.91
2023-03-06T22:57:17.473Z,94444.41
2023-03-06T22:59:45.078Z,94437.22
2023-03-06T23:02:13.693Z,94432.81
2023-03-06T23:04:41.336Z,94431.53
2023-03-06T23:07:10.953Z,94427.59
2023-03-06T23:09:38.633Z,94435.13
2023-03-06T23:12:25.580Z,94435.41
2023-03-06T23:15:12.916Z,94432.81
2023-03-06T23:17:59.395Z,94421.09
2023-03-06T23:20:46.043Z,94424.03
2023-03-06T23:23:34.364Z,94428.09
2023-03-06T23:26:02.290Z,94423.69
2023-03-06T23:28:31.375Z,94429.72
2023-03-06T23:30:59.000Z,94423.34
2023-03-06T23:33:27.094Z,94428.56
2023-03-06T23:35:54.800Z,94432.28
2023-03-06T23:38:23.283Z,94430.69
2023-03-06T23:40:52.236Z,94433.13
2023-03-06T23:43:19.860Z,94433.09
2023-03-06T23:45:53.556Z,94423.66
2023-03-06T23:48:22.067Z,94431.66
2023-03-06T23:50:49.685Z,94425.63
2023-03-06T23:53:18.215Z,94422.88
2023-03-06T23:55:47.440Z,94419.06
2023-03-06T23:58:18.029Z,94426.25
